createdAt,value
2023-05-07T00:00:37.141Z,3.29
2023-05-07T00:01:37.062Z,3.32
2023-05-07T00:02:37.208Z,3.31
2023-05-07T00:03:38.188Z,3.28
2023-05-07T00:04:37.206Z,3.32
2023-05-07T00:05:37.129Z,3.25
2023-05-07T00:06:37.087Z,3.28
2023-05-07T00:07:37.133Z,3.28
2023-05-07T00:08:37.198Z,3.28
2023-05-07T00:09:37.174Z,3.30
2023-05-07T00:10:37.153Z,3.35
2023-05-07T00:11:37.501Z,3.32
2023-05-07T00:12:37.232Z,3.36
2023-05-07T00:13:37.201Z,3.39
2023-05-07T00:14:37.202Z,3.36
2023-05-07T00:15:37.237Z,3.29
2023-05-07T00:16:38.025Z,3.32
2023-05-07T00:17:37.274Z,3.37
2023-05-07T00:18:37.249Z,3.40
2023-05-07T00:19:37.273Z,3.38
2023-05-07T00:20:37.268Z,3.39
2023-05-07T00:21:37.272Z,3.39
2023-05-07T00:22:37.406Z,3.42
2023-05-07T00:23:37.338Z,3.43
2023-05-07T00:24:37.349Z,3.48
2023-05-07T00:25:37.335Z,3.35
2023-05-07T00:26:37.384Z,3.40
2023-05-07T00:27:37.501Z,3.35
2023-05-07T00:28:37.438Z,3.35
2023-05-07T00:29:37.486Z,3.33
2023-05-07T00:30:37.983Z,3.37
2023-05-07T00:31:38.045Z,3.38
2023-05-07T00:32:37.493Z,3.36
2023-05-07T00:33:37.486Z,3.35
2023-05-07T00:34:37.476Z,3.29
2023-05-07T00:35:37.547Z,3.27
2023-05-07T00:36:37.522Z,3.21
2023-05-07T00:37:37.510Z,3.31
2023-05-07T00:38:37.560Z,3.24
2023-05-07T00:39:37.650Z,3.26
2023-05-07T00:40:37.540Z,3.22
2023-05-07T00:41:37.637Z,3.20
2023-05-07T00:42:37.624Z,3.27
2023-05-07T00:43:37.615Z,3.24
2023-05-07T00:44:37.654Z,3.23
2023-05-07T00:45:37.712Z,3.20
2023-05-07T00:46:37.807Z,3.27
2023-05-07T00:47:37.716Z,3.26
2023-05-07T00:48:37.693Z,3.26
2023-05-07T00:49:37.725Z,3.22
2023-05-07T00:50:37.781Z,3.17
2023-05-07T00:51:37.744Z,3.21
2023-05-07T00:52:37.750Z,3.24
2023-05-07T00:53:37.771Z,3.21
2023-05-07T00:54:37.742Z,3.24
2023-05-07T00:55:37.792Z,3.23
2023-05-07T00:56:37.799Z,3.23
2023-05-07T00:57:37.830Z,3.18
2023-05-07T00:58:37.849Z,3.19
2023-05-07T00:59:37.830Z,3.18
2023-05-07T01:00:37.850Z,3.15
2023-05-07T01:01:37.920Z,3.18
2023-05-07T01:02:37.916Z,3.08
2023-05-07T01:03:37.936Z,3.13
2023-05-07T01:04:38.080Z,3.14
2023-05-07T01:05:37.931Z,3.13
2023-05-07T01:06:37.936Z,3.12
2023-05-07T01:07:37.992Z,3.07
2023-05-07T01:08:37.971Z,3.10
2023-05-07T01:09:38.004Z,3.10
2023-05-07T01:10:38.031Z,3.06
2023-05-07T01:11:38.035Z,3.05
2023-05-07T01:12:38.099Z,3.05
2023-05-07T01:13:38.097Z,3.04
2023-05-07T01:14:38.108Z,3.00
2023-05-07T01:15:38.106Z,3.04
2023-05-07T01:16:38.175Z,3.02
2023-05-07T01:17:38.209Z,3.03
2023-05-07T01:18:39.017Z,2.99
2023-05-07T01:19:38.175Z,2.99
2023-05-07T01:20:38.272Z,3.02
2023-05-07T01:21:38.208Z,2.97
2023-05-07T01:22:38.244Z,2.98
2023-05-07T01:23:38.255Z,2.91
2023-05-07T01:24:38.341Z,2.96
2023-05-07T01:25:38.366Z,3.00
2023-05-07T01:26:38.292Z,3.06
2023-05-07T01:27:38.324Z,2.99
2023-05-07T01:28:38.315Z,2.97
2023-05-07T01:29:38.343Z,3.00
2023-05-07T01:30:38.385Z,3.06
2023-05-07T01:31:38.531Z,3.04
2023-05-07T01:32:38.406Z,3.03
2023-05-07T01:33:38.399Z,3.01
2023-05-07T01:34:38.436Z,3.10
2023-05-07T01:35:38.434Z,3.04
2023-05-07T01:36:38.484Z,3.03
2023-05-07T01:37:38.483Z,3.02
2023-05-07T01:38:38.481Z,3.04
2023-05-07T01:39:38.498Z,3.03
2023-05-07T01:40:38.518Z,3.02
2023-05-07T01:41:38.587Z,3.03
2023-05-07T01:42:38.655Z,3.05
2023-05-07T01:43:38.593Z,3.04
2023-05-07T01:44:38.593Z,3.05
2023-05-07T01:45:38.613Z,3.11
2023-05-07T01:46:38.691Z,3.09
2023-05-07T01:47:38.920Z,3.07
2023-05-07T01:48:38.686Z,3.04
2023-05-07T01:49:39.513Z,3.02
2023-05-07T01:50:38.745Z,3.03
2023-05-07T01:51:38.788Z,3.01
2023-05-07T01:52:38.764Z,3.02
2023-05-07T01:53:38.762Z,2.95
2023-05-07T01:54:38.792Z,2.99
2023-05-07T01:55:38.793Z,2.90
2023-05-07T01:56:38.821Z,2.92
2023-05-07T01:57:38.849Z,2.94
2023-05-07T01:58:38.838Z,2.92
2023-05-07T01:59:38.943Z,2.96
2023-05-07T02:00:38.870Z,2.94
2023-05-07T02:01:38.942Z,2.93
2023-05-07T02:02:38.975Z,2.91
2023-05-07T02:03:39.195Z,2.92
2023-05-07T02:04:38.953Z,2.88
2023-05-07T02:05:38.963Z,2.91
2023-05-07T02:06:38.976Z,2.95
2023-05-07T02:07:39.002Z,2.89
2023-05-07T02:08:39.105Z,2.92
2023-05-07T02:09:39.059Z,2.91
2023-05-07T02:10:39.059Z,2.89
2023-05-07T02:11:40.022Z,2.90
2023-05-07T02:12:39.128Z,2.84
2023-05-07T02:13:39.135Z,2.89
2023-05-07T02:14:39.201Z,2.89
2023-05-07T02:15:39.197Z,2.87
2023-05-07T02:16:39.248Z,2.88
2023-05-07T02:17:39.236Z,2.91
2023-05-07T02:18:39.245Z,2.91
2023-05-07T02:19:39.320Z,2.90
2023-05-07T02:20:39.301Z,2.90
2023-05-07T02:21:39.323Z,2.86
2023-05-07T02:22:39.276Z,2.88
2023-05-07T02:23:39.307Z,2.87
2023-05-07T02:24:39.305Z,2.90
2023-05-07T02:25:39.350Z,2.88
2023-05-07T02:26:39.363Z,2.88
2023-05-07T02:27:39.391Z,2.94
2023-05-07T02:28:39.389Z,2.87
2023-05-07T02:29:39.434Z,2.91
2023-05-07T02:30:39.431Z,2.89
2023-05-07T02:31:39.517Z,2.89
2023-05-07T02:32:39.505Z,2.89
2023-05-07T02:33:39.526Z,2.94
2023-05-07T02:34:39.553Z,2.94
2023-05-07T02:35:39.612Z,2.93
2023-05-07T02:36:39.554Z,2.91
2023-05-07T02:37:39.694Z,2.89
2023-05-07T02:38:39.620Z,2.92
2023-05-07T02:39:39.649Z,2.90
2023-05-07T02:40:39.661Z,2.92
2023-05-07T02:41:39.670Z,2.88
2023-05-07T02:42:39.725Z,2.90
2023-05-07T02:43:39.694Z,2.88
2023-05-07T02:44:39.753Z,2.87
2023-05-07T02:45:39.795Z,2.90
2023-05-07T02:46:39.788Z,2.89
2023-05-07T02:47:39.816Z,2.86
2023-05-07T02:48:39.817Z,2.90
2023-05-07T02:49:39.804Z,2.84
2023-05-07T02:50:39.869Z,2.88
2023-05-07T02:51:39.938Z,2.90
2023-05-07T02:52:39.885Z,2.88
2023-05-07T02:53:39.951Z,2.86
2023-05-07T02:54:40.521Z,2.86
2023-05-07T02:55:40.110Z,2.90
2023-05-07T02:56:39.997Z,2.85
2023-05-07T02:57:40.038Z,2.85
2023-05-07T02:58:40.081Z,2.83
2023-05-07T02:59:40.076Z,2.83
2023-05-07T03:00:40.097Z,2.83
2023-05-07T03:01:40.231Z,2.82
2023-05-07T03:02:40.167Z,2.80
2023-05-07T03:03:40.226Z,2.82
2023-05-07T03:04:40.267Z,2.77
2023-05-07T03:05:40.244Z,2.74
2023-05-07T03:06:40.233Z,2.74
2023-05-07T03:07:40.361Z,2.78
2023-05-07T03:08:40.279Z,2.77
2023-05-07T03:09:40.288Z,2.76
2023-05-07T03:10:41.089Z,2.74
2023-05-07T03:11:40.367Z,2.78
2023-05-07T03:12:40.565Z,2.72
2023-05-07T03:13:40.419Z,2.68
2023-05-07T03:14:40.436Z,2.69
2023-05-07T03:15:40.469Z,2.70
2023-05-07T03:16:40.507Z,2.69
2023-05-07T03:17:40.592Z,2.76
2023-05-07T03:18:40.609Z,2.65
2023-05-07T03:19:40.576Z,2.68
2023-05-07T03:20:40.627Z,2.69
2023-05-07T03:21:40.576Z,2.70
2023-05-07T03:22:40.648Z,2.70
2023-05-07T03:23:40.730Z,2.68
2023-05-07T03:24:40.709Z,2.67
2023-05-07T03:25:40.709Z,2.65
2023-05-07T03:26:40.757Z,2.63
2023-05-07T03:27:40.753Z,2.67
2023-05-07T03:28:40.790Z,2.66
2023-05-07T03:29:40.902Z,2.68
2023-05-07T03:30:40.839Z,2.65
2023-05-07T03:31:40.905Z,2.67
2023-05-07T03:32:40.924Z,2.66
2023-05-07T03:33:40.904Z,2.65
2023-05-07T03:34:40.934Z,2.69
2023-05-07T03:35:40.939Z,2.68
2023-05-07T03:36:40.957Z,2.58
2023-05-07T03:37:41.028Z,2.64
2023-05-07T03:38:41.014Z,2.58
2023-05-07T03:39:41.114Z,2.63
2023-05-07T03:40:41.109Z,2.63
2023-05-07T03:41:41.118Z,2.63
2023-05-07T03:42:41.196Z,2.59
2023-05-07T03:43:41.159Z,2.63
2023-05-07T03:44:41.159Z,2.59
2023-05-07T03:45:41.233Z,2.60
2023-05-07T03:46:41.268Z,2.58
2023-05-07T03:47:41.295Z,2.53
2023-05-07T03:48:41.283Z,2.59
2023-05-07T03:49:41.330Z,2.54
2023-05-07T03:50:41.363Z,2.58
2023-05-07T03:51:41.367Z,2.57
2023-05-07T03:52:41.404Z,2.55
2023-05-07T03:53:41.450Z,2.56
2023-05-07T03:54:41.475Z,2.57
2023-05-07T03:55:41.518Z,2.51
2023-05-07T03:56:41.623Z,2.49
2023-05-07T03:57:41.549Z,2.55
2023-05-07T03:58:41.565Z,2.53
2023-05-07T03:59:41.620Z,2.53
2023-05-07T04:00:41.668Z,2.54
2023-05-07T04:01:41.750Z,2.49
2023-05-07T04:02:41.959Z,2.53
2023-05-07T04:03:41.796Z,2.49
2023-05-07T04:04:41.786Z,2.46
2023-05-07T04:05:41.793Z,2.45
2023-05-07T04:06:41.802Z,2.46
2023-05-07T04:07:41.861Z,2.49
2023-05-07T04:08:41.898Z,2.45
2023-05-07T04:09:41.932Z,2.46
2023-05-07T04:10:41.906Z,2.46
2023-05-07T04:11:42.063Z,2.42
2023-05-07T04:12:42.060Z,2.42
2023-05-07T04:13:42.004Z,2.44
2023-05-07T04:14:42.049Z,2.43
2023-05-07T04:15:42.081Z,2.45
2023-05-07T04:16:42.171Z,2.39
2023-05-07T04:17:42.202Z,2.43
2023-05-07T04:18:42.180Z,2.40
2023-05-07T04:19:42.226Z,2.39
2023-05-07T04:20:42.212Z,2.41
2023-05-07T04:21:42.298Z,2.36
2023-05-07T04:22:42.309Z,2.40
2023-05-07T04:23:42.308Z,2.37
2023-05-07T04:24:42.359Z,2.37
2023-05-07T04:25:42.390Z,2.36
2023-05-07T04:26:42.422Z,2.35
2023-05-07T04:27:42.529Z,2.36
2023-05-07T04:28:42.473Z,2.40
2023-05-07T04:29:42.513Z,2.36
2023-05-07T04:30:42.555Z,2.35
2023-05-07T04:31:42.626Z,2.36
2023-05-07T04:32:42.631Z,2.37
2023-05-07T04:33:42.663Z,2.35
2023-05-07T04:34:42.681Z,2.32
2023-05-07T04:35:42.706Z,2.35
2023-05-07T04:36:42.726Z,2.35
2023-05-07T04:37:42.779Z,2.36
2023-05-07T04:38:42.776Z,2.37
2023-05-07T04:39:42.837Z,2.33
2023-05-07T04:40:42.844Z,2.35
2023-05-07T04:41:42.887Z,2.31
2023-05-07T04:42:42.961Z,2.35
2023-05-07T04:43:42.924Z,2.38
2023-05-07T04:44:42.982Z,2.32
2023-05-07T04:45:43.025Z,2.33
2023-05-07T04:46:43.006Z,2.29
2023-05-07T04:47:43.091Z,2.28
2023-05-07T04:48:43.140Z,2.26
2023-05-07T04:49:43.089Z,2.27
2023-05-07T04:50:43.126Z,2.24
2023-05-07T04:51:44.879Z,2.25
2023-05-07T04:52:43.191Z,2.21
2023-05-07T04:53:43.166Z,2.23
2023-05-07T04:54:43.195Z,2.26
2023-05-07T04:55:43.215Z,2.23
2023-05-07T04:56:43.298Z,2.21
2023-05-07T04:57:43.282Z,2.21
2023-05-07T04:58:43.284Z,2.21
2023-05-07T04:59:43.412Z,2.21
2023-05-07T05:00:43.352Z,2.19
2023-05-07T05:01:43.465Z,2.25
2023-05-07T05:02:43.470Z,2.21
2023-05-07T05:03:43.508Z,2.22
2023-05-07T05:04:43.448Z,2.21
2023-05-07T05:05:43.494Z,2.21
2023-05-07T05:06:43.493Z,2.20
2023-05-07T05:07:43.517Z,2.18
2023-05-07T05:08:43.542Z,2.21
2023-05-07T05:09:43.541Z,2.21
2023-05-07T05:10:43.554Z,2.20
2023-05-07T05:11:43.592Z,2.16
2023-05-07T05:12:43.627Z,2.16
2023-05-07T05:13:43.692Z,2.15
2023-05-07T05:14:43.740Z,2.16
2023-05-07T05:15:43.731Z,2.14
2023-05-07T05:16:43.709Z,2.19
2023-05-07T05:17:43.815Z,2.16
2023-05-07T05:18:43.801Z,2.21
2023-05-07T05:19:43.925Z,2.18
2023-05-07T05:20:44.772Z,2.18
2023-05-07T05:21:43.811Z,2.18
2023-05-07T05:22:43.856Z,2.19
2023-05-07T05:23:43.779Z,2.17
2023-05-07T05:24:43.748Z,2.22
2023-05-07T05:25:43.779Z,2.19
2023-05-07T05:26:43.726Z,2.22
2023-05-07T05:27:43.741Z,2.17
2023-05-07T05:28:43.742Z,2.16
2023-05-07T05:29:43.732Z,2.18
2023-05-07T05:30:43.759Z,2.13
2023-05-07T05:31:43.842Z,2.13
2023-05-07T05:32:43.751Z,2.12
2023-05-07T05:33:43.713Z,2.09
2023-05-07T05:34:43.698Z,2.09
2023-05-07T05:35:43.675Z,2.12
2023-05-07T05:36:43.698Z,2.08
2023-05-07T05:37:43.656Z,2.02
2023-05-07T05:38:44.609Z,2.12
2023-05-07T05:39:44.577Z,2.05
2023-05-07T05:40:43.718Z,2.08
2023-05-07T05:41:43.776Z,2.04
2023-05-07T05:42:43.767Z,2.07
2023-05-07T05:43:43.830Z,2.04
2023-05-07T05:44:43.843Z,2.06
2023-05-07T05:45:43.858Z,2.07
2023-05-07T05:46:43.925Z,2.03
2023-05-07T05:47:44.043Z,2.01
2023-05-07T05:48:43.936Z,2.00
2023-05-07T05:49:43.942Z,2.04
2023-05-07T05:50:43.941Z,2.04
2023-05-07T05:51:44.000Z,2.07
2023-05-07T05:52:44.000Z,2.03
2023-05-07T05:53:44.022Z,2.05
2023-05-07T05:54:44.050Z,2.04
2023-05-07T05:55:44.140Z,2.08
2023-05-07T05:56:44.106Z,2.08
2023-05-07T05:57:44.142Z,2.05
2023-05-07T05:58:45.149Z,2.11
2023-05-07T05:59:44.148Z,2.03
2023-05-07T06:00:44.181Z,2.06
2023-05-07T06:01:44.211Z,2.05
2023-05-07T06:02:44.419Z,2.04
2023-05-07T06:03:44.314Z,2.02
2023-05-07T06:04:44.328Z,2.02
2023-05-07T06:05:44.285Z,2.02
2023-05-07T06:06:44.301Z,2.01
2023-05-07T06:07:44.461Z,2.04
2023-05-07T06:08:44.424Z,2.02
2023-05-07T06:09:44.360Z,2.01
2023-05-07T06:10:44.460Z,1.99
2023-05-07T06:11:44.369Z,2.02
2023-05-07T06:12:44.471Z,2.04
2023-05-07T06:13:44.448Z,2.04
2023-05-07T06:14:44.447Z,2.00
2023-05-07T06:15:44.474Z,2.02
2023-05-07T06:16:44.663Z,2.02
2023-05-07T06:17:44.538Z,1.98
2023-05-07T06:18:44.514Z,1.98
2023-05-07T06:19:44.684Z,1.99
2023-05-07T06:20:46.185Z,1.95
2023-05-07T06:21:44.630Z,1.97
2023-05-07T06:22:44.608Z,1.98
2023-05-07T06:23:44.648Z,1.98
2023-05-07T06:24:44.646Z,1.98
2023-05-07T06:25:44.743Z,1.95
2023-05-07T06:26:44.698Z,1.94
2023-05-07T06:27:44.710Z,1.96
2023-05-07T06:28:44.727Z,1.96
2023-05-07T06:29:44.754Z,1.93
2023-05-07T06:30:44.761Z,1.93
2023-05-07T06:31:44.797Z,1.88
2023-05-07T06:32:44.879Z,1.85
2023-05-07T06:33:44.822Z,1.82
2023-05-07T06:34:44.869Z,1.79
2023-05-07T06:35:44.954Z,1.74
2023-05-07T06:36:44.880Z,1.74
2023-05-07T06:37:44.922Z,1.72
2023-05-07T06:38:44.900Z,1.66
2023-05-07T06:39:44.948Z,1.64
2023-05-07T06:40:44.983Z,1.63
2023-05-07T06:41:44.972Z,1.65
2023-05-07T06:42:46.643Z,1.61
2023-05-07T06:43:45.037Z,1.56
2023-05-07T06:44:45.064Z,1.58
2023-05-07T06:45:45.076Z,1.57
2023-05-07T06:46:45.158Z,1.56
2023-05-07T06:47:45.124Z,1.58
2023-05-07T06:48:45.142Z,1.56
2023-05-07T06:49:45.150Z,1.59
2023-05-07T06:50:45.184Z,1.60
2023-05-07T06:51:45.195Z,1.59
2023-05-07T06:52:45.259Z,1.56
2023-05-07T06:53:45.236Z,1.55
2023-05-07T06:54:45.260Z,1.56
2023-05-07T06:55:45.281Z,1.53
2023-05-07T06:56:45.260Z,1.52
2023-05-07T06:57:45.307Z,1.51
2023-05-07T06:58:45.340Z,1.55
2023-05-07T06:59:45.330Z,1.51
2023-05-07T07:00:45.372Z,1.49
2023-05-07T07:01:45.427Z,1.48
2023-05-07T07:02:45.404Z,1.43
2023-05-07T07:03:45.416Z,1.41
2023-05-07T07:04:45.457Z,1.41
2023-05-07T07:05:45.459Z,1.40
2023-05-07T07:06:45.462Z,1.41
2023-05-07T07:07:45.603Z,1.38
2023-05-07T07:08:45.523Z,1.32
2023-05-07T07:09:45.533Z,1.28
2023-05-07T07:10:45.574Z,1.27
2023-05-07T07:11:45.591Z,1.28
2023-05-07T07:12:45.643Z,1.27
2023-05-07T07:13:45.622Z,1.24
2023-05-07T07:14:45.665Z,1.29
2023-05-07T07:15:45.720Z,1.24
2023-05-07T07:16:45.766Z,1.25
2023-05-07T07:17:45.777Z,1.25
2023-05-07T07:18:45.804Z,1.30
2023-05-07T07:19:45.779Z,1.29
2023-05-07T07:20:45.805Z,1.31
2023-05-07T07:21:46.622Z,1.29
2023-05-07T07:22:45.831Z,1.29
2023-05-07T07:23:45.859Z,1.27
2023-05-07T07:24:45.890Z,1.28
2023-05-07T07:25:45.926Z,1.25
2023-05-07T07:26:45.918Z,1.13
2023-05-07T07:27:45.976Z,1.16
2023-05-07T07:28:45.976Z,1.18
2023-05-07T07:29:46.006Z,1.14
2023-05-07T07:30:46.008Z,1.08
2023-05-07T07:31:46.094Z,0.96
2023-05-07T07:32:46.172Z,0.95
2023-05-07T07:33:46.646Z,0.94
2023-05-07T07:34:46.106Z,0.91
2023-05-07T07:35:46.195Z,0.89
2023-05-07T07:36:47.083Z,0.87
2023-05-07T07:37:46.169Z,0.88
2023-05-07T07:38:46.195Z,0.83
2023-05-07T07:39:46.282Z,0.84
2023-05-07T07:40:46.253Z,0.78
2023-05-07T07:41:46.243Z,0.79
2023-05-07T07:42:46.255Z,0.79
2023-05-07T07:43:46.327Z,0.83
2023-05-07T07:44:46.319Z,0.75
2023-05-07T07:45:46.312Z,0.76
2023-05-07T07:46:46.406Z,0.74
2023-05-07T07:47:46.464Z,0.77
2023-05-07T07:48:46.416Z,0.77
2023-05-07T07:49:46.413Z,0.78
2023-05-07T07:50:46.689Z,0.78
2023-05-07T07:51:46.465Z,0.74
2023-05-07T07:52:46.482Z,0.76
2023-05-07T07:53:46.490Z,0.71
2023-05-07T07:54:46.495Z,0.66
2023-05-07T07:55:46.636Z,0.65
2023-05-07T07:56:46.586Z,0.65
2023-05-07T07:57:46.632Z,0.65
2023-05-07T07:58:46.632Z,0.68
2023-05-07T07:59:46.653Z,0.69
2023-05-07T08:00:46.658Z,0.71
2023-05-07T08:01:46.768Z,0.72
2023-05-07T08:02:47.297Z,0.69
2023-05-07T08:03:46.840Z,0.68
2023-05-07T08:04:46.759Z,0.67
2023-05-07T08:05:46.747Z,0.66
2023-05-07T08:06:46.767Z,0.68
2023-05-07T08:07:46.846Z,0.58
2023-05-07T08:08:46.807Z,0.58
2023-05-07T08:09:46.853Z,0.57
2023-05-07T08:10:46.873Z,0.52
2023-05-07T08:11:47.102Z,0.56
2023-05-07T08:12:46.971Z,0.58
2023-05-07T08:13:47.024Z,0.62
2023-05-07T08:14:46.903Z,0.61
2023-05-07T08:15:46.944Z,0.62
2023-05-07T08:16:47.070Z,0.59
2023-05-07T08:17:47.038Z,0.57
2023-05-07T08:18:47.009Z,0.58
2023-05-07T08:19:47.017Z,0.57
2023-05-07T08:20:47.018Z,0.59
2023-05-07T08:21:47.106Z,0.57
2023-05-07T08:22:47.241Z,0.58
2023-05-07T08:23:47.075Z,0.52
2023-05-07T08:24:47.088Z,0.55
2023-05-07T08:25:47.109Z,0.49
2023-05-07T08:26:47.593Z,0.50
2023-05-07T08:27:47.368Z,0.53
2023-05-07T08:28:47.164Z,0.54
2023-05-07T08:29:47.190Z,0.51
2023-05-07T08:30:47.204Z,0.50
2023-05-07T08:31:47.356Z,0.51
2023-05-07T08:32:47.257Z,0.53
2023-05-07T08:33:47.259Z,0.56
2023-05-07T08:34:47.258Z,0.59
2023-05-07T08:35:47.389Z,0.60
2023-05-07T08:36:47.307Z,0.60
2023-05-07T08:37:47.408Z,0.64
2023-05-07T08:38:47.441Z,0.62
2023-05-07T08:39:47.489Z,0.63
2023-05-07T08:40:47.403Z,0.67
2023-05-07T08:41:47.411Z,0.67
2023-05-07T08:42:47.440Z,0.68
2023-05-07T08:43:47.596Z,0.69
2023-05-07T08:44:47.438Z,0.68
2023-05-07T08:45:47.576Z,0.71
2023-05-07T08:46:47.720Z,0.74
2023-05-07T08:47:47.602Z,0.78
2023-05-07T08:48:47.504Z,0.80
2023-05-07T08:49:47.523Z,0.78
2023-05-07T08:50:47.512Z,0.78
2023-05-07T08:51:48.180Z,0.80
2023-05-07T08:52:47.520Z,0.79
2023-05-07T08:53:47.559Z,0.79
2023-05-07T08:54:47.561Z,0.81
2023-05-07T08:55:47.571Z,0.82
2023-05-07T08:56:47.574Z,0.82
2023-05-07T08:57:47.564Z,0.81
2023-05-07T08:58:47.641Z,0.81
2023-05-07T08:59:47.647Z,0.84
2023-05-07T09:00:47.602Z,0.77
2023-05-07T09:01:47.634Z,0.76
2023-05-07T09:02:47.712Z,0.72
2023-05-07T09:03:47.684Z,0.74
2023-05-07T09:04:47.694Z,0.71
2023-05-07T09:05:47.704Z,0.75
2023-05-07T09:06:47.639Z,0.72
2023-05-07T09:07:47.678Z,0.71
2023-05-07T09:08:47.656Z,0.73
2023-05-07T09:09:47.745Z,0.71
2023-05-07T09:10:47.687Z,0.74
2023-05-07T09:11:47.713Z,0.76
2023-05-07T09:12:47.808Z,0.75
2023-05-07T09:13:47.700Z,0.76
2023-05-07T09:14:47.729Z,0.77
2023-05-07T09:15:47.928Z,0.79
2023-05-07T09:16:47.838Z,0.77
2023-05-07T09:17:47.820Z,0.76
2023-05-07T09:18:47.815Z,0.74
2023-05-07T09:19:47.802Z,0.64
2023-05-07T09:20:47.848Z,0.60
2023-05-07T09:21:47.946Z,0.62
2023-05-07T09:22:47.883Z,0.64
2023-05-07T09:23:47.899Z,0.64
2023-05-07T09:24:47.919Z,0.64
2023-05-07T09:25:47.955Z,0.59
2023-05-07T09:26:47.942Z,0.62
2023-05-07T09:27:47.960Z,0.63
2023-05-07T09:28:47.990Z,0.60
2023-05-07T09:29:47.993Z,0.60
2023-05-07T09:30:48.051Z,0.57
2023-05-07T09:31:48.148Z,0.60
2023-05-07T09:32:48.092Z,0.60
2023-05-07T09:33:48.084Z,0.57
2023-05-07T09:34:48.127Z,0.63
2023-05-07T09:35:48.152Z,0.62
2023-05-07T09:36:48.194Z,0.57
2023-05-07T09:37:48.229Z,0.61
2023-05-07T09:38:48.231Z,0.64
2023-05-07T09:39:49.165Z,0.72
2023-05-07T09:40:48.315Z,0.72
2023-05-07T09:41:48.307Z,0.66
2023-05-07T09:42:48.416Z,0.66
2023-05-07T09:43:48.428Z,0.73
2023-05-07T09:44:48.456Z,0.72
2023-05-07T09:45:48.529Z,0.75
2023-05-07T09:46:48.551Z,0.72
2023-05-07T09:47:48.625Z,0.63
2023-05-07T09:48:48.734Z,0.59
2023-05-07T09:49:48.691Z,0.60
2023-05-07T09:50:48.730Z,0.60
2023-05-07T09:51:48.759Z,0.62
2023-05-07T09:52:48.830Z,0.62
2023-05-07T09:53:48.896Z,0.58
2023-05-07T09:54:48.956Z,0.64
2023-05-07T09:55:48.994Z,0.69
2023-05-07T09:56:49.015Z,0.59
2023-05-07T09:57:49.081Z,0.59
2023-05-07T09:58:49.188Z,0.57
2023-05-07T09:59:49.192Z,0.56
2023-05-07T10:00:49.256Z,0.55
2023-05-07T10:01:49.314Z,0.50
2023-05-07T10:02:49.416Z,0.50
2023-05-07T10:03:49.844Z,0.50
2023-05-07T10:04:49.477Z,0.50
2023-05-07T10:05:49.498Z,0.51
2023-05-07T10:06:49.550Z,0.58
2023-05-07T10:07:49.604Z,0.62
2023-05-07T10:08:49.664Z,0.66
2023-05-07T10:09:49.695Z,0.62
2023-05-07T10:10:49.826Z,0.50
2023-05-07T10:11:49.825Z,0.52
2023-05-07T10:12:49.891Z,0.57
2023-05-07T10:13:49.902Z,0.58
2023-05-07T10:14:49.971Z,0.55
2023-05-07T10:15:50.021Z,0.55
2023-05-07T10:16:50.075Z,0.53
2023-05-07T10:17:50.319Z,0.54
2023-05-07T10:18:50.170Z,0.53
2023-05-07T10:19:50.285Z,0.63
2023-05-07T10:20:50.304Z,0.63
2023-05-07T10:21:50.389Z,0.63
2023-05-07T10:22:50.368Z,0.59
2023-05-07T10:23:50.409Z,0.61
2023-05-07T10:24:50.499Z,0.65
2023-05-07T10:25:50.492Z,0.62
2023-05-07T10:26:50.563Z,0.50
2023-05-07T10:27:50.613Z,0.50
2023-05-07T10:28:50.635Z,0.52
2023-05-07T10:29:51.642Z,0.50
2023-05-07T10:30:50.788Z,0.51
2023-05-07T10:31:50.818Z,0.52
2023-05-07T10:32:50.839Z,0.51
2023-05-07T10:33:50.899Z,0.51
2023-05-07T10:34:50.923Z,0.50
2023-05-07T10:35:50.955Z,0.50
2023-05-07T10:36:51.085Z,0.52
2023-05-07T10:37:51.079Z,0.54
2023-05-07T10:38:51.118Z,0.57
2023-05-07T10:39:51.157Z,0.55
2023-05-07T10:40:51.194Z,0.54
2023-05-07T10:41:51.232Z,0.56
2023-05-07T10:42:51.278Z,0.57
2023-05-07T10:43:51.323Z,0.56
2023-05-07T10:44:51.344Z,0.61
2023-05-07T10:45:51.418Z,0.67
2023-05-07T10:46:51.446Z,0.64
2023-05-07T10:47:51.604Z,0.71
2023-05-07T10:48:51.549Z,0.54
2023-05-07T10:49:51.550Z,0.56
2023-05-07T10:50:51.734Z,0.70
2023-05-07T10:51:51.735Z,0.77
2023-05-07T10:52:51.697Z,0.74
2023-05-07T10:53:51.754Z,0.91
2023-05-07T10:54:51.768Z,1.01
2023-05-07T10:55:51.845Z,1.00
2023-05-07T10:56:51.873Z,0.73
2023-05-07T10:57:51.877Z,0.60
2023-05-07T10:58:52.013Z,0.53
2023-05-07T10:59:51.968Z,0.48
2023-05-07T11:00:52.080Z,0.53
2023-05-07T11:01:52.182Z,0.66
2023-05-07T11:02:52.118Z,0.74
2023-05-07T11:03:52.134Z,0.81
2023-05-07T11:04:52.242Z,0.82
2023-05-07T11:05:52.186Z,0.75
2023-05-07T11:06:52.251Z,0.73
2023-05-07T11:07:52.327Z,0.73
2023-05-07T11:08:52.275Z,0.65
2023-05-07T11:09:52.322Z,0.64
2023-05-07T11:10:52.396Z,0.68
2023-05-07T11:11:52.501Z,0.69
2023-05-07T11:12:52.549Z,0.63
2023-05-07T11:13:52.472Z,0.70
2023-05-07T11:14:52.538Z,0.76
2023-05-07T11:15:52.650Z,0.88
2023-05-07T11:16:52.600Z,0.95
2023-05-07T11:17:52.708Z,0.89
2023-05-07T11:18:52.685Z,0.76
2023-05-07T11:19:53.227Z,0.61
2023-05-07T11:20:52.748Z,0.55
2023-05-07T11:21:52.766Z,0.56
2023-05-07T11:22:54.139Z,0.64
2023-05-07T11:23:52.863Z,0.70
2023-05-07T11:24:52.888Z,0.65
2023-05-07T11:25:52.924Z,0.56
2023-05-07T11:26:52.939Z,0.58
2023-05-07T11:27:53.001Z,0.51
2023-05-07T11:28:53.045Z,0.50
2023-05-07T11:29:53.024Z,0.57
2023-05-07T11:30:53.058Z,0.60
2023-05-07T11:31:53.231Z,0.57
2023-05-07T11:32:53.221Z,0.60
2023-05-07T11:33:53.159Z,0.64
2023-05-07T11:34:53.338Z,0.55
2023-05-07T11:35:53.226Z,0.54
2023-05-07T11:36:53.281Z,0.50
2023-05-07T11:37:53.288Z,0.58
2023-05-07T11:38:53.331Z,0.72
2023-05-07T11:39:53.380Z,0.72
2023-05-07T11:40:53.377Z,0.72
2023-05-07T11:41:53.712Z,0.66
2023-05-07T11:42:53.439Z,0.62
2023-05-07T11:43:53.451Z,0.61
2023-05-07T11:44:53.465Z,0.56
2023-05-07T11:45:53.524Z,0.51
2023-05-07T11:46:53.524Z,0.50
2023-05-07T11:47:53.627Z,0.50
2023-05-07T11:48:53.562Z,0.50
2023-05-07T11:49:53.595Z,0.54
2023-05-07T11:50:53.621Z,0.62
2023-05-07T11:51:53.640Z,0.67
2023-05-07T11:52:53.736Z,0.71
2023-05-07T11:53:53.712Z,0.73
2023-05-07T11:54:53.720Z,0.69
2023-05-07T11:55:53.710Z,0.65
2023-05-07T11:56:53.758Z,0.55
2023-05-07T11:57:53.792Z,0.50
2023-05-07T11:58:53.789Z,0.50
2023-05-07T11:59:53.802Z,0.52
2023-05-07T12:00:53.833Z,0.61
2023-05-07T12:01:53.917Z,0.63
2023-05-07T12:02:53.903Z,0.64
2023-05-07T12:03:54.004Z,0.59
2023-05-07T12:04:53.998Z,0.54
2023-05-07T12:05:53.940Z,0.58
2023-05-07T12:06:53.952Z,0.56
2023-05-07T12:07:53.955Z,0.57
2023-05-07T12:08:53.934Z,0.60
2023-05-07T12:09:53.970Z,0.60
2023-05-07T12:10:53.985Z,0.60
2023-05-07T12:11:54.000Z,0.60
2023-05-07T12:12:54.131Z,0.55
2023-05-07T12:13:54.021Z,0.56
2023-05-07T12:14:54.098Z,0.51
2023-05-07T12:15:54.101Z,0.53
2023-05-07T12:16:54.180Z,0.59
2023-05-07T12:17:54.202Z,0.61
2023-05-07T12:18:54.145Z,0.64
2023-05-07T12:19:54.167Z,0.63
2023-05-07T12:20:54.182Z,0.72
2023-05-07T12:21:54.163Z,0.74
2023-05-07T12:22:54.218Z,0.83
2023-05-07T12:23:54.186Z,0.82
2023-05-07T12:24:54.271Z,0.87
2023-05-07T12:25:54.245Z,0.87
2023-05-07T12:26:54.250Z,0.90
2023-05-07T12:27:54.250Z,0.91
2023-05-07T12:28:54.242Z,0.97
2023-05-07T12:29:54.278Z,0.99
2023-05-07T12:30:54.283Z,0.92
2023-05-07T12:31:54.341Z,0.86
2023-05-07T12:32:54.326Z,0.84
2023-05-07T12:33:54.299Z,0.83
2023-05-07T12:34:55.329Z,0.96
2023-05-07T12:35:54.360Z,0.99
2023-05-07T12:36:54.370Z,1.02
2023-05-07T12:37:54.403Z,1.00
2023-05-07T12:38:54.430Z,1.05
2023-05-07T12:39:54.499Z,1.02
2023-05-07T12:40:54.436Z,1.10
2023-05-07T12:41:54.433Z,1.11
2023-05-07T12:42:54.461Z,1.15
2023-05-07T12:43:54.441Z,1.28
2023-05-07T12:44:54.485Z,1.36
2023-05-07T12:45:54.491Z,1.38
2023-05-07T12:46:54.576Z,1.49
2023-05-07T12:47:54.505Z,1.67
2023-05-07T12:48:54.553Z,1.75
2023-05-07T12:49:54.507Z,1.70
2023-05-07T12:50:54.510Z,1.88
2023-05-07T12:51:54.540Z,1.94
2023-05-07T12:52:54.565Z,2.07
2023-05-07T12:53:54.572Z,2.21
2023-05-07T12:54:54.586Z,2.24
2023-05-07T12:55:54.627Z,2.38
2023-05-07T12:56:54.614Z,2.72
2023-05-07T12:57:54.664Z,2.91
2023-05-07T12:58:54.621Z,3.01
2023-05-07T12:59:54.643Z,3.08
2023-05-07T13:00:54.635Z,3.32
2023-05-07T13:01:54.774Z,3.32
2023-05-07T13:02:54.867Z,3.65
2023-05-07T13:03:54.817Z,3.76
2023-05-07T13:04:54.694Z,3.98
2023-05-07T13:05:58.474Z,4.15
2023-05-07T13:06:54.679Z,4.16
2023-05-07T13:07:54.719Z,4.16
2023-05-07T13:08:55.267Z,4.22
2023-05-07T13:09:54.653Z,4.32
2023-05-07T13:10:54.663Z,4.40
2023-05-07T13:11:54.637Z,4.42
2023-05-07T13:12:54.664Z,4.63
2023-05-07T13:13:54.673Z,4.81
2023-05-07T13:14:54.603Z,4.91
2023-05-07T13:15:54.614Z,4.94
2023-05-07T13:16:54.640Z,5.09
2023-05-07T13:17:54.724Z,5.21
2023-05-07T13:18:54.627Z,5.37